Time;durP1;ratioP1;P1;durP2;ratioP2;P2;SDS_P1;SDS_P2;PMS_P1;PMS_P2;Temp;Humidity;BMP_temperature;BMP_pressure;BME280_temperature;BME280_humidity;BME280_pressure;Samples;Min_cycle;Max_cycle;Signal;HPM_P1;HPM_P2
2023/08/11 00:00:13;;;;;;;2.47;1.23;;;;;;;;;;5065963;28;20055;-64
2023/08/11 00:02:39;;;;;;;2.70;1.10;;;;;;;;;;5065644;28;20267;-63
2023/08/11 00:05:04;;;;;;;3.92;1.13;;;;;;;;;;5066713;28;20040;-64
2023/08/11 00:07:30;;;;;;;1.75;0.93;;;;;;;;;;5066878;28;20437;-64
2023/08/11 00:09:55;;;;;;;1.87;1.07;;;;;;;;;;5066229;28;20434;-63
2023/08/11 00:12:20;;;;;;;2.10;1.08;;;;;;;;;;5065672;28;20283;-63
2023/08/11 00:14:46;;;;;;;2.50;1.10;;;;;;;;;;5065560;28;20500;-64
2023/08/11 00:17:11;;;;;;;1.90;1.13;;;;;;;;;;5047279;28;20037;-64
2023/08/11 00:19:36;;;;;;;2.40;1.20;;;;;;;;;;5065896;28;20040;-63
2023/08/11 00:22:02;;;;;;;1.30;0.90;;;;;;;;;;5066961;28;20707;-63
2023/08/11 00:24:27;;;;;;;3.05;1.05;;;;;;;;;;5071752;28;20522;-63
2023/08/11 00:26:52;;;;;;;2.53;1.10;;;;;;;;;;5065454;28;20048;-64
2023/08/11 00:29:17;;;;;;;1.30;0.90;;;;;;;;;;5065413;28;20036;-64
2023/08/11 00:31:45;;;;;;;2.38;1.30;;;;;;;;;;5065865;28;20340;-64
2023/08/11 00:34:10;;;;;;;1.30;1.00;;;;;;;;;;5069461;28;20065;-63
2023/08/11 00:36:36;;;;;;;1.98;1.02;;;;;;;;;;5056983;28;20041;-62
2023/08/11 00:39:01;;;;;;;3.23;1.10;;;;;;;;;;5068191;28;20039;-61
2023/08/11 00:41:26;;;;;;;2.47;1.00;;;;;;;;;;5064915;28;20009;-62
2023/08/11 00:43:51;;;;;;;4.57;1.30;;;;;;;;;;5065073;28;20258;-63
2023/08/11 00:46:17;;;;;;;2.70;0.90;;;;;;;;;;5065085;28;20052;-63
2023/08/11 00:48:42;;;;;;;3.43;1.40;;;;;;;;;;5046883;28;20134;-63
2023/08/11 00:51:08;;;;;;;2.47;1.17;;;;;;;;;;5046829;28;20020;-64
2023/08/11 00:53:33;;;;;;;2.70;1.35;;;;;;;;;;5071838;28;20631;-64
2023/08/11 00:55:59;;;;;;;3.57;1.27;;;;;;;;;;5069266;28;20070;-63
2023/08/11 00:58:24;;;;;;;3.28;1.25;;;;;;;;;;5057910;28;20266;-63
2023/08/11 01:00:50;;;;;;;3.50;1.20;;;;;;;;;;5049147;28;20543;-64
2023/08/11 01:03:17;;;;;;;2.75;1.10;;;;;;;;;;5064599;28;20021;-64
2023/08/11 01:05:43;;;;;;;3.95;1.10;;;;;;;;;;5064981;28;20020;-63
2023/08/11 01:08:15;;;;;;;2.78;1.10;;;;;;;;;;5046648;28;20075;-64
2023/08/11 01:10:50;;;;;;;1.42;0.90;;;;;;;;;;5050282;28;20015;-64
2023/08/11 01:13:21;;;;;;;2.83;1.15;;;;;;;;;;5047279;28;20063;-64
2023/08/11 01:16:12;;;;;;;3.90;1.20;;;;;;;;;;5064872;28;20028;-63
2023/08/11 01:18:37;;;;;;;1.83;1.20;;;;;;;;;;5060849;28;20037;-64
2023/08/11 01:21:06;;;;;;;3.20;1.30;;;;;;;;;;5048337;28;20086;-63
2023/08/11 01:23:31;;;;;;;2.10;1.30;;;;;;;;;;5069272;28;20282;-64
2023/08/11 01:25:56;;;;;;;3.13;1.47;;;;;;;;;;5069627;28;20410;-63
2023/08/11 01:28:21;;;;;;;1.97;1.13;;;;;;;;;;5047337;28;20509;-64
2023/08/11 01:30:48;;;;;;;2.93;1.00;;;;;;;;;;5061947;28;20271;-63
2023/08/11 01:33:13;;;;;;;2.75;1.45;;;;;;;;;;5065165;28;20332;-64
2023/08/11 01:35:38;;;;;;;2.45;1.02;;;;;;;;;;5064801;28;20032;-64
2023/08/11 01:38:04;;;;;;;1.53;0.93;;;;;;;;;;5046585;28;20024;-63
2023/08/11 01:40:29;;;;;;;2.15;1.20;;;;;;;;;;5065067;28;20284;-63
2023/08/11 01:42:54;;;;;;;2.60;1.30;;;;;;;;;;5068256;28;20043;-63
2023/08/11 01:45:20;;;;;;;3.63;1.30;;;;;;;;;;5071882;28;20495;-63
2023/08/11 01:47:46;;;;;;;3.17;1.20;;;;;;;;;;5049858;28;20040;-64
2023/08/11 01:50:11;;;;;;;3.78;1.20;;;;;;;;;;5050795;28;20094;-63
2023/08/11 01:52:40;;;;;;;2.88;0.90;;;;;;;;;;5069868;28;20033;-64
2023/08/11 01:55:11;;;;;;;2.05;1.35;;;;;;;;;;5050546;28;20028;-64
2023/08/11 01:57:37;;;;;;;2.65;1.20;;;;;;;;;;5068534;28;20037;-63
2023/08/11 02:00:07;;;;;;;2.30;1.27;;;;;;;;;;5068580;28;20036;-64
2023/08/11 02:02:32;;;;;;;3.20;0.93;;;;;;;;;;5068867;28;20071;-64
2023/08/11 02:04:58;;;;;;;2.80;1.20;;;;;;;;;;5075724;28;20049;-63
2023/08/11 02:07:23;;;;;;;3.38;1.20;;;;;;;;;;5068168;28;20317;-63
2023/08/11 02:09:49;;;;;;;2.03;1.20;;;;;;;;;;5068537;28;20048;-63
2023/08/11 02:12:14;;;;;;;2.58;1.20;;;;;;;;;;5068669;28;20333;-64
2023/08/11 02:14:39;;;;;;;2.73;1.20;;;;;;;;;;5074633;28;20043;-63
2023/08/11 02:17:04;;;;;;;3.17;1.33;;;;;;;;;;5068206;28;20032;-62
2023/08/11 02:19:30;;;;;;;2.10;1.27;;;;;;;;;;5068273;28;20079;-63
2023/08/11 02:21:55;;;;;;;1.67;1.10;;;;;;;;;;5068404;28;20399;-63
2023/08/11 02:24:20;;;;;;;2.97;1.40;;;;;;;;;;5079971;28;20064;-64
2023/08/11 02:26:46;;;;;;;3.97;1.73;;;;;;;;;;5068028;28;20141;-64
2023/08/11 02:29:12;;;;;;;2.28;1.35;;;;;;;;;;5064493;28;20041;-63
2023/08/11 02:31:37;;;;;;;2.00;1.23;;;;;;;;;;5062828;28;20421;-64
2023/08/11 02:34:02;;;;;;;1.60;1.13;;;;;;;;;;5067802;28;20589;-62
2023/08/11 02:36:27;;;;;;;2.95;1.17;;;;;;;;;;5067852;28;20275;-63
2023/08/11 02:38:53;;;;;;;1.80;1.10;;;;;;;;;;5067975;28;20047;-63
2023/08/11 02:41:21;;;;;;;3.30;1.30;;;;;;;;;;5068818;28;20377;-63
2023/08/11 02:43:46;;;;;;;3.00;1.48;;;;;;;;;;5067793;28;20029;-64
2023/08/11 02:46:11;;;;;;;1.90;1.20;;;;;;;;;;5067432;28;20059;-62
2023/08/11 02:48:38;;;;;;;3.50;1.20;;;;;;;;;;5049619;28;20377;-62
2023/08/11 02:51:03;;;;;;;2.45;1.38;;;;;;;;;;5067578;28;20470;-62
2023/08/11 02:53:29;;;;;;;2.08;1.20;;;;;;;;;;5067623;28;20138;-63
2023/08/11 02:55:54;;;;;;;2.20;1.27;;;;;;;;;;5067543;28;20048;-62
2023/08/11 02:58:19;;;;;;;2.70;1.20;;;;;;;;;;5067630;28;20127;-62
2023/08/11 03:00:46;;;;;;;3.37;1.47;;;;;;;;;;5076561;28;20684;-63
2023/08/11 03:03:12;;;;;;;2.28;1.27;;;;;;;;;;5067080;28;20311;-63
2023/08/11 03:05:37;;;;;;;2.13;1.30;;;;;;;;;;5067555;28;20067;-63
2023/08/11 03:08:02;;;;;;;3.33;1.50;;;;;;;;;;5067853;28;20348;-67
2023/08/11 03:10:28;;;;;;;2.92;1.30;;;;;;;;;;5067408;28;20271;-63
2023/08/11 03:12:53;;;;;;;3.88;1.38;;;;;;;;;;5067412;28;20041;-63
2023/08/11 03:15:19;;;;;;;5.53;1.42;;;;;;;;;;5067874;28;20036;-62
2023/08/11 03:17:44;;;;;;;2.83;1.30;;;;;;;;;;5084101;28;20089;-62
2023/08/11 03:20:12;;;;;;;1.83;1.20;;;;;;;;;;5066902;28;20468;-63
2023/08/11 03:22:38;;;;;;;3.35;1.55;;;;;;;;;;5066754;28;20083;-63
2023/08/11 03:25:03;;;;;;;2.40;1.27;;;;;;;;;;5066668;28;20036;-63
2023/08/11 03:27:29;;;;;;;2.08;1.38;;;;;;;;;;5066933;28;20041;-62
2023/08/11 03:29:54;;;;;;;5.67;1.20;;;;;;;;;;5057806;28;20525;-62
2023/08/11 03:32:19;;;;;;;2.33;1.10;;;;;;;;;;5061994;28;20431;-62
2023/08/11 03:34:44;;;;;;;1.77;1.20;;;;;;;;;;5067983;28;20434;-63
2023/08/11 03:37:10;;;;;;;2.03;1.43;;;;;;;;;;5055566;28;20646;-63
2023/08/11 03:39:35;;;;;;;3.67;1.53;;;;;;;;;;5063177;28;20381;-63
2023/08/11 03:42:00;;;;;;;3.27;1.30;;;;;;;;;;5073685;28;20316;-63
2023/08/11 03:44:25;;;;;;;2.27;1.50;;;;;;;;;;5068245;28;20366;-63
2023/08/11 03:46:50;;;;;;;2.87;1.50;;;;;;;;;;5066637;28;20143;-62
2023/08/11 03:49:17;;;;;;;2.57;1.43;;;;;;;;;;5048149;28;20109;-63
2023/08/11 03:51:42;;;;;;;2.80;1.48;;;;;;;;;;5066489;28;20091;-64
2023/08/11 03:54:07;;;;;;;5.13;1.50;;;;;;;;;;5066497;28;20467;-63
2023/08/11 03:56:32;;;;;;;3.47;1.60;;;;;;;;;;5066482;28;20751;-63
2023/08/11 03:58:58;;;;;;;2.15;1.20;;;;;;;;;;5066131;28;20136;-63
2023/08/11 04:01:23;;;;;;;3.37;1.73;;;;;;;;;;5065440;28;20094;-63
2023/08/11 04:03:48;;;;;;;2.42;1.52;;;;;;;;;;5066230;28;20048;-62
2023/08/11 04:06:13;;;;;;;3.47;1.42;;;;;;;;;;5066599;28;20139;-63
2023/08/11 04:08:39;;;;;;;3.47;1.30;;;;;;;;;;5065268;28;20474;-63
2023/08/11 04:11:04;;;;;;;1.87;1.30;;;;;;;;;;5065500;28;20036;-62
2023/08/11 04:13:29;;;;;;;3.77;1.70;;;;;;;;;;5069616;28;20055;-63
2023/08/11 04:15:54;;;;;;;1.77;1.17;;;;;;;;;;5068188;28;20908;-63
2023/08/11 04:18:20;;;;;;;3.33;1.53;;;;;;;;;;5065800;28;20423;-62
2023/08/11 04:20:46;;;;;;;3.47;1.23;;;;;;;;;;5066374;28;20522;-64
2023/08/11 04:23:11;;;;;;;2.47;1.10;;;;;;;;;;5049493;28;20098;-62
2023/08/11 04:25:37;;;;;;;4.07;1.50;;;;;;;;;;5065582;28;20024;-63
2023/08/11 04:28:02;;;;;;;2.88;1.35;;;;;;;;;;5065406;28;20082;-63
2023/08/11 04:30:27;;;;;;;2.05;1.33;;;;;;;;;;5064242;28;20043;-62
2023/08/11 04:32:53;;;;;;;2.80;1.50;;;;;;;;;;5065343;28;21057;-63
2023/08/11 04:35:18;;;;;;;1.77;1.40;;;;;;;;;;5065959;28;20123;-63
2023/08/11 04:37:43;;;;;;;3.33;1.37;;;;;;;;;;5063233;28;20127;-62
2023/08/11 04:40:10;;;;;;;4.32;1.42;;;;;;;;;;5066226;28;20139;-62
2023/08/11 04:42:36;;;;;;;3.05;1.50;;;;;;;;;;5064359;28;20028;-62
2023/08/11 04:45:01;;;;;;;2.53;1.50;;;;;;;;;;5079467;28;20039;-63
2023/08/11 04:47:26;;;;;;;3.53;1.50;;;;;;;;;;5073080;28;20043;-62
2023/08/11 04:49:51;;;;;;;2.90;1.57;;;;;;;;;;5073280;28;20383;-64
2023/08/11 04:52:17;;;;;;;5.03;1.40;;;;;;;;;;5076680;28;20040;-62
2023/08/11 04:54:42;;;;;;;2.92;1.50;;;;;;;;;;5065178;28;20044;-64
2023/08/11 04:57:07;;;;;;;3.73;1.40;;;;;;;;;;5048084;28;20044;-63
2023/08/11 04:59:32;;;;;;;3.87;1.60;;;;;;;;;;5065221;28;20282;-63
2023/08/11 05:02:00;;;;;;;3.17;1.50;;;;;;;;;;5064634;28;20044;-63
2023/08/11 05:04:25;;;;;;;3.15;1.50;;;;;;;;;;5064871;28;20040;-62
2023/08/11 05:06:51;;;;;;;3.10;1.60;;;;;;;;;;5064241;28;20044;-64
2023/08/11 05:09:16;;;;;;;3.72;1.48;;;;;;;;;;5061842;28;20052;-64
2023/08/11 05:11:41;;;;;;;3.47;1.58;;;;;;;;;;5054718;28;20090;-63
2023/08/11 05:14:06;;;;;;;2.47;1.50;;;;;;;;;;5061914;28;20059;-66
2023/08/11 05:16:32;;;;;;;5.10;1.60;;;;;;;;;;5056752;28;20283;-65
2023/08/11 05:18:57;;;;;;;2.95;1.77;;;;;;;;;;5070943;28;20090;-61
2023/08/11 05:21:22;;;;;;;3.37;1.80;;;;;;;;;;5064610;28;20028;-64
2023/08/11 05:23:47;;;;;;;2.70;1.80;;;;;;;;;;5072434;28;20778;-63
2023/08/11 05:26:13;;;;;;;2.37;1.63;;;;;;;;;;5053681;28;20302;-63
2023/08/11 05:28:38;;;;;;;2.33;1.60;;;;;;;;;;5066410;28;20952;-64
2023/08/11 05:31:04;;;;;;;3.03;1.75;;;;;;;;;;5060595;28;20036;-64
2023/08/11 05:33:30;;;;;;;3.28;1.80;;;;;;;;;;5053269;28;20091;-65
2023/08/11 05:35:55;;;;;;;2.65;1.60;;;;;;;;;;5063758;28;20037;-63
2023/08/11 05:38:20;;;;;;;3.17;1.80;;;;;;;;;;5058748;28;20120;-63
2023/08/11 05:40:45;;;;;;;2.63;1.65;;;;;;;;;;5049084;28;20037;-64
2023/08/11 05:43:11;;;;;;;2.60;1.67;;;;;;;;;;5048589;28;20040;-62
2023/08/11 05:45:36;;;;;;;2.78;1.80;;;;;;;;;;5049133;28;20128;-66
2023/08/11 05:48:01;;;;;;;2.67;1.90;;;;;;;;;;5050976;28;20090;-63
2023/08/11 05:50:26;;;;;;;2.85;1.70;;;;;;;;;;5049171;28;20052;-63
2023/08/11 05:52:52;;;;;;;3.60;1.83;;;;;;;;;;5051402;28;20032;-63
2023/08/11 05:55:17;;;;;;;3.05;1.60;;;;;;;;;;5038757;28;20123;-63
2023/08/11 05:57:42;;;;;;;3.47;1.60;;;;;;;;;;5049831;28;20033;-63
2023/08/11 06:00:09;;;;;;;2.50;1.90;;;;;;;;;;5052598;28;20151;-63
2023/08/11 06:02:34;;;;;;;3.60;1.70;;;;;;;;;;5051132;28;20345;-63
2023/08/11 06:04:59;;;;;;;3.27;1.73;;;;;;;;;;5042506;28;20029;-62
2023/08/11 06:07:24;;;;;;;6.50;2.00;;;;;;;;;;5051989;28;20390;-63
2023/08/11 06:09:50;;;;;;;3.07;1.70;;;;;;;;;;5048765;28;20033;-63
2023/08/11 06:12:15;;;;;;;4.07;2.17;;;;;;;;;;5048512;28;20660;-62
2023/08/11 06:14:41;;;;;;;3.90;1.65;;;;;;;;;;5047183;28;20076;-62
2023/08/11 06:17:06;;;;;;;4.32;1.50;;;;;;;;;;5052154;28;20025;-64
2023/08/11 06:19:31;;;;;;;2.47;1.70;;;;;;;;;;5049920;28;20099;-63
2023/08/11 06:21:57;;;;;;;3.38;1.60;;;;;;;;;;5039382;28;20301;-63
2023/08/11 06:24:23;;;;;;;3.28;1.95;;;;;;;;;;5048008;28;20438;-62
2023/08/11 06:26:48;;;;;;;2.65;1.98;;;;;;;;;;5050178;28;20044;-62
2023/08/11 06:29:13;;;;;;;3.80;2.27;;;;;;;;;;5036375;28;20058;-64
2023/08/11 06:31:38;;;;;;;3.83;1.90;;;;;;;;;;5050721;28;20293;-64
2023/08/11 06:34:04;;;;;;;4.45;2.08;;;;;;;;;;5053131;28;20708;-64
2023/08/11 06:36:29;;;;;;;3.23;2.20;;;;;;;;;;5052638;28;20120;-62
2023/08/11 06:38:54;;;;;;;4.65;2.03;;;;;;;;;;5051026;28;20287;-62
2023/08/11 06:41:19;;;;;;;4.50;2.20;;;;;;;;;;5052821;28;20126;-63
2023/08/11 06:43:47;;;;;;;3.67;2.00;;;;;;;;;;5048743;28;20745;-62
2023/08/11 06:46:12;;;;;;;3.25;2.03;;;;;;;;;;5048101;28;20295;-62
2023/08/11 06:48:37;;;;;;;3.63;2.10;;;;;;;;;;5051080;28;20322;-59
2023/08/11 06:51:03;;;;;;;3.93;1.97;;;;;;;;;;5048358;28;20442;-60
2023/08/11 06:53:28;;;;;;;2.77;1.90;;;;;;;;;;5056230;28;20098;-61
2023/08/11 06:55:53;;;;;;;3.70;2.20;;;;;;;;;;5053532;28;20294;-62
2023/08/11 06:58:18;;;;;;;3.63;2.33;;;;;;;;;;5059701;28;20029;-62
2023/08/11 07:00:43;;;;;;;3.37;2.37;;;;;;;;;;5067796;28;20043;-61
2023/08/11 07:03:09;;;;;;;2.95;2.40;;;;;;;;;;5066644;28;20045;-60
2023/08/11 07:05:34;;;;;;;2.73;2.13;;;;;;;;;;5061324;28;20498;-61
2023/08/11 07:07:59;;;;;;;4.93;2.37;;;;;;;;;;5057648;28;20731;-60
2023/08/11 07:10:24;;;;;;;3.30;2.10;;;;;;;;;;5054004;28;20557;-58
2023/08/11 07:12:50;;;;;;;4.35;2.30;;;;;;;;;;5060955;28;20291;-59
2023/08/11 07:15:15;;;;;;;3.43;2.10;;;;;;;;;;5055339;28;20418;-60
2023/08/11 07:17:40;;;;;;;4.53;2.30;;;;;;;;;;5053879;28;20381;-61
2023/08/11 07:20:06;;;;;;;2.97;2.17;;;;;;;;;;5051402;28;20280;-63
2023/08/11 07:22:31;;;;;;;4.03;2.22;;;;;;;;;;5051309;28;20064;-60
2023/08/11 07:24:56;;;;;;;3.83;2.37;;;;;;;;;;5051697;28;20036;-64
2023/08/11 07:27:21;;;;;;;5.77;2.77;;;;;;;;;;5051565;28;20048;-60
2023/08/11 07:29:46;;;;;;;3.33;2.67;;;;;;;;;;5051466;28;20047;-61
2023/08/11 07:32:12;;;;;;;5.10;2.67;;;;;;;;;;5051344;28;20291;-62
2023/08/11 07:34:38;;;;;;;6.23;2.30;;;;;;;;;;5051742;28;20033;-61
2023/08/11 07:37:04;;;;;;;4.65;2.35;;;;;;;;;;5052487;28;20037;-66
2023/08/11 07:39:30;;;;;;;4.07;2.40;;;;;;;;;;5052442;28;20491;-61
2023/08/11 07:42:01;;;;;;;3.80;2.63;;;;;;;;;;5052699;28;20119;-63
2023/08/11 07:44:27;;;;;;;3.58;2.38;;;;;;;;;;5049753;28;20029;-60
2023/08/11 07:46:52;;;;;;;4.07;2.77;;;;;;;;;;5050790;28;20044;-59
2023/08/11 07:49:17;;;;;;;5.50;2.85;;;;;;;;;;5050923;28;20032;-60
2023/08/11 07:51:42;;;;;;;3.63;2.13;;;;;;;;;;5050921;28;20406;-60
2023/08/11 07:54:08;;;;;;;3.83;2.40;;;;;;;;;;5051525;28;20274;-61
2023/08/11 07:56:33;;;;;;;4.45;2.63;;;;;;;;;;5050971;28;20808;-63
2023/08/11 07:58:58;;;;;;;6.85;2.90;;;;;;;;;;5051504;28;20029;-60
2023/08/11 08:01:24;;;;;;;4.03;2.67;;;;;;;;;;5051307;28;20403;-60
2023/08/11 08:03:50;;;;;;;4.03;2.42;;;;;;;;;;5050241;28;20310;-62
2023/08/11 08:06:15;;;;;;;5.50;2.80;;;;;;;;;;5053779;28;20482;-61
2023/08/11 08:08:40;;;;;;;5.33;2.70;;;;;;;;;;5062729;28;20437;-62
2023/08/11 08:11:05;;;;;;;5.57;2.83;;;;;;;;;;5063694;28;20274;-62
2023/08/11 08:13:31;;;;;;;4.17;2.33;;;;;;;;;;5064736;28;20013;-60
2023/08/11 08:15:56;;;;;;;4.55;2.70;;;;;;;;;;5059979;28;20079;-59
2023/08/11 08:18:21;;;;;;;3.42;2.42;;;;;;;;;;5049104;28;20525;-61
2023/08/11 08:20:47;;;;;;;3.63;2.60;;;;;;;;;;5068147;28;20020;-61
2023/08/11 08:23:12;;;;;;;4.50;2.20;;;;;;;;;;5078609;28;20032;-61
2023/08/11 08:31:44;;;;;;;2.83;1.70;;;;;;;;;;5049312;28;20097;-80
2023/08/11 08:34:10;;;;;;;2.80;2.00;;;;;;;;;;5060674;28;20036;-81
2023/08/11 08:36:35;;;;;;;3.43;1.90;;;;;;;;;;5025606;28;20089;-77
2023/08/11 08:39:00;;;;;;;2.60;1.83;;;;;;;;;;5044400;28;20087;-77
2023/08/11 08:41:28;;;;;;;4.77;2.20;;;;;;;;;;5043526;28;20681;-85
2023/08/11 08:43:56;;;;;;;3.35;1.92;;;;;;;;;;5042650;28;20568;-81
2023/08/11 08:46:21;;;;;;;2.83;1.88;;;;;;;;;;5042268;28;20539;-82
2023/08/11 08:48:47;;;;;;;3.58;2.05;;;;;;;;;;5038190;28;20126;-81
2023/08/11 08:51:12;;;;;;;4.23;2.20;;;;;;;;;;5040605;28;20069;-82
2023/08/11 08:53:37;;;;;;;2.60;2.00;;;;;;;;;;5015569;28;20064;-81
2023/08/11 08:56:04;;;;;;;4.10;2.00;;;;;;;;;;5021850;28;20075;-81
2023/08/11 08:58:31;;;;;;;2.67;1.95;;;;;;;;;;5045456;28;20051;-79
2023/08/11 09:00:56;;;;;;;7.82;2.28;;;;;;;;;;5028591;28;20040;-79
2023/08/11 09:03:22;;;;;;;3.92;1.88;;;;;;;;;;5013259;28;20079;-77
2023/08/11 09:05:47;;;;;;;4.15;2.08;;;;;;;;;;5025308;28;20040;-78
2023/08/11 09:08:12;;;;;;;3.07;1.97;;;;;;;;;;5015590;28;20060;-78
2023/08/11 09:10:37;;;;;;;4.47;1.92;;;;;;;;;;5022998;28;20040;-78
2023/08/11 09:13:03;;;;;;;3.03;1.90;;;;;;;;;;5049080;28;20036;-81
2023/08/11 09:15:28;;;;;;;4.05;2.00;;;;;;;;;;5017910;28;20075;-81
2023/08/11 09:17:54;;;;;;;3.50;2.08;;;;;;;;;;5007919;28;20033;-78
2023/08/11 09:20:19;;;;;;;2.33;2.03;;;;;;;;;;5023046;28;20040;-78
2023/08/11 09:22:44;;;;;;;3.75;1.90;;;;;;;;;;5024588;28;20307;-78
2023/08/11 09:25:10;;;;;;;4.03;2.27;;;;;;;;;;5042444;28;20576;-78
2023/08/11 09:27:36;;;;;;;3.15;1.92;;;;;;;;;;5011928;28;20477;-78
2023/08/11 09:30:02;;;;;;;4.18;2.00;;;;;;;;;;5024401;28;20120;-79
2023/08/11 09:32:27;;;;;;;3.38;2.35;;;;;;;;;;5029885;28;20044;-78
2023/08/11 09:34:52;;;;;;;3.63;2.40;;;;;;;;;;5058129;28;20033;-78
2023/08/11 09:37:18;;;;;;;4.47;2.42;;;;;;;;;;5024181;28;20051;-78
2023/08/11 09:39:43;;;;;;;4.83;2.53;;;;;;;;;;5023644;28;20033;-78
2023/08/11 09:42:14;;;;;;;3.22;2.15;;;;;;;;;;5041497;28;20072;-78
2023/08/11 09:44:40;;;;;;;4.97;2.30;;;;;;;;;;5024858;28;20150;-78
2023/08/11 09:47:05;;;;;;;3.63;2.10;;;;;;;;;;5024096;28;20037;-78
2023/08/11 09:49:30;;;;;;;4.38;2.65;;;;;;;;;;5031038;28;20040;-78
2023/08/11 09:51:56;;;;;;;5.10;2.67;;;;;;;;;;5024709;28;20452;-78
2023/08/11 09:54:21;;;;;;;3.72;2.50;;;;;;;;;;5024730;28;20041;-79
2023/08/11 09:56:46;;;;;;;3.80;2.27;;;;;;;;;;5008562;28;20490;-78
2023/08/11 09:59:12;;;;;;;3.00;2.08;;;;;;;;;;5008465;28;20034;-76
2023/08/11 10:01:38;;;;;;;3.55;2.30;;;;;;;;;;5018152;28;20128;-78
2023/08/11 10:04:07;;;;;;;4.18;2.25;;;;;;;;;;5027058;28;20103;-77
2023/08/11 10:06:32;;;;;;;2.63;1.83;;;;;;;;;;5030254;28;20068;-77
2023/08/11 10:09:00;;;;;;;3.87;2.40;;;;;;;;;;5028495;28;20484;-78
2023/08/11 10:11:25;;;;;;;4.55;2.50;;;;;;;;;;5028946;28;20071;-76
2023/08/11 10:13:50;;;;;;;2.73;2.27;;;;;;;;;;5028843;28;20037;-77
2023/08/11 10:16:16;;;;;;;2.45;1.90;;;;;;;;;;5029057;28;20048;-77
2023/08/11 10:18:41;;;;;;;2.90;2.28;;;;;;;;;;5030403;28;20550;-77
2023/08/11 10:21:07;;;;;;;3.42;2.13;;;;;;;;;;5030515;28;20128;-77
2023/08/11 10:23:33;;;;;;;3.10;2.07;;;;;;;;;;5039732;28;20116;-77
2023/08/11 10:25:58;;;;;;;6.53;2.38;;;;;;;;;;5056362;28;20335;-76
2023/08/11 10:28:23;;;;;;;5.80;2.20;;;;;;;;;;5042260;28;20053;-81
2023/08/11 10:30:58;;;;;;;20.73;8.38;;;;;;;;;;5028079;28;20075;-80
2023/08/11 10:33:24;;;;;;;73.85;28.30;;;;;;;;;;5046338;28;20047;-79
2023/08/11 10:35:49;;;;;;;143.68;51.33;;;;;;;;;;5034669;28;20025;-76
2023/08/11 10:38:33;;;;;;;120.65;37.03;;;;;;;;;;5043113;28;20408;-83
2023/08/11 10:41:07;;;;;;;114.32;31.17;;;;;;;;;;5043224;28;20037;-77
2023/08/11 10:43:33;;;;;;;107.90;32.70;;;;;;;;;;5032275;28;20115;-76
2023/08/11 10:46:18;;;;;;;123.40;39.67;;;;;;;;;;5022281;28;20153;-76
2023/08/11 10:48:43;;;;;;;40.45;16.15;;;;;;;;;;5028602;28;20363;-75
2023/08/11 10:51:28;;;;;;;46.38;19.17;;;;;;;;;;5029038;28;20488;-76
2023/08/11 10:53:54;;;;;;;26.75;11.82;;;;;;;;;;5034904;28;20033;-77
2023/08/11 10:56:26;;;;;;;12.77;6.28;;;;;;;;;;5029089;28;20056;-76
2023/08/11 10:58:51;;;;;;;10.85;4.82;;;;;;;;;;5027477;28;20545;-77
2023/08/11 11:01:16;;;;;;;16.67;5.93;;;;;;;;;;5034553;28;20529;-78
2023/08/11 11:03:41;;;;;;;8.17;3.70;;;;;;;;;;5026918;28;20032;-76
2023/08/11 11:06:07;;;;;;;5.03;3.17;;;;;;;;;;5010791;28;20386;-79
2023/08/11 11:08:32;;;;;;;5.27;2.70;;;;;;;;;;5026769;28;20116;-77
2023/08/11 11:10:57;;;;;;;5.10;2.50;;;;;;;;;;5026777;28;20797;-77
2023/08/11 11:13:22;;;;;;;4.75;2.60;;;;;;;;;;5037677;28;20286;-77
2023/08/11 11:15:48;;;;;;;5.87;3.07;;;;;;;;;;5038971;28;20024;-77
2023/08/11 11:18:13;;;;;;;6.27;3.10;;;;;;;;;;5065300;28;20533;-77
2023/08/11 11:20:38;;;;;;;3.87;2.40;;;;;;;;;;5045115;28;20565;-77
2023/08/11 11:23:04;;;;;;;4.57;2.22;;;;;;;;;;5046034;28;20719;-77
2023/08/11 11:25:29;;;;;;;3.60;2.53;;;;;;;;;;5038404;28;20447;-76
2023/08/11 11:27:55;;;;;;;3.30;2.30;;;;;;;;;;5025880;28;20033;-77
2023/08/11 11:30:21;;;;;;;4.18;2.47;;;;;;;;;;5063265;28;20309;-76
2023/08/11 11:32:48;;;;;;;3.22;2.35;;;;;;;;;;5061114;28;20032;-77
2023/08/11 11:35:13;;;;;;;3.30;2.30;;;;;;;;;;5042244;28;20059;-76
2023/08/11 11:40:42;;;;;;;3.70;2.38;;;;;;;;;;5045419;28;20118;-76
2023/08/11 11:43:07;;;;;;;3.25;2.22;;;;;;;;;;5027214;28;20033;-76
2023/08/11 11:45:32;;;;;;;6.47;2.57;;;;;;;;;;5027627;28;20111;-76
2023/08/11 11:47:57;;;;;;;3.03;2.10;;;;;;;;;;5047596;28;20334;-75
2023/08/11 11:50:22;;;;;;;4.27;2.53;;;;;;;;;;5033500;28;20852;-76
2023/08/11 11:52:48;;;;;;;3.40;2.00;;;;;;;;;;5057187;28;20391;-77
2023/08/11 11:55:13;;;;;;;3.03;1.85;;;;;;;;;;5049708;28;20279;-76
2023/08/11 11:57:39;;;;;;;4.78;2.50;;;;;;;;;;5025041;28;20057;-76
2023/08/11 12:00:12;;;;;;;4.43;2.22;;;;;;;;;;5031660;28;20037;-77
2023/08/11 12:02:37;;;;;;;3.55;2.40;;;;;;;;;;5011575;28;20048;-76
2023/08/11 12:05:03;;;;;;;5.03;2.33;;;;;;;;;;5055632;28;20043;-76
2023/08/11 12:07:31;;;;;;;3.78;1.83;;;;;;;;;;5023760;28;20056;-75
2023/08/11 12:09:57;;;;;;;4.53;2.22;;;;;;;;;;5027239;28;20055;-76
2023/08/11 12:12:28;;;;;;;2.80;2.08;;;;;;;;;;5044491;28;20508;-76
2023/08/11 12:14:53;;;;;;;3.17;1.80;;;;;;;;;;5053272;28;20029;-76
2023/08/11 12:17:20;;;;;;;2.92;1.77;;;;;;;;;;5037053;28;20072;-76
2023/08/11 12:19:46;;;;;;;4.38;2.08;;;;;;;;;;5045133;28;20029;-77
2023/08/11 12:22:11;;;;;;;3.35;1.90;;;;;;;;;;5044315;28;20101;-75
2023/08/11 12:24:36;;;;;;;3.50;2.07;;;;;;;;;;5034860;28;20124;-75
2023/08/11 12:27:03;;;;;;;3.90;1.90;;;;;;;;;;5032997;28;22362;-78
2023/08/11 12:29:28;;;;;;;4.00;2.03;;;;;;;;;;5032569;28;20043;-78
2023/08/11 12:31:53;;;;;;;3.05;1.88;;;;;;;;;;5032032;28;20041;-77
2023/08/11 12:34:18;;;;;;;5.60;2.03;;;;;;;;;;5036111;28;20145;-78
2023/08/11 12:36:44;;;;;;;4.17;1.80;;;;;;;;;;5020919;28;20047;-76
2023/08/11 12:39:09;;;;;;;3.03;1.70;;;;;;;;;;5036322;28;20903;-75
2023/08/11 12:41:34;;;;;;;3.50;2.03;;;;;;;;;;5039524;28;20287;-75
2023/08/11 12:44:00;;;;;;;2.93;1.93;;;;;;;;;;5043602;28;20272;-76
2023/08/11 12:46:25;;;;;;;3.70;1.80;;;;;;;;;;5050873;28;20963;-75
2023/08/11 12:48:50;;;;;;;3.27;1.87;;;;;;;;;;5010520;28;20029;-76
2023/08/11 12:51:15;;;;;;;3.33;1.80;;;;;;;;;;5043798;28;20272;-74
2023/08/11 12:53:41;;;;;;;3.53;1.80;;;;;;;;;;5009607;28;20868;-76
2023/08/11 12:56:06;;;;;;;3.47;1.77;;;;;;;;;;5038479;28;20036;-76
2023/08/11 12:58:31;;;;;;;2.30;1.52;;;;;;;;;;5010605;28;20287;-75
2023/08/11 13:00:57;;;;;;;3.60;1.80;;;;;;;;;;5032152;28;20531;-76
2023/08/11 13:03:22;;;;;;;2.90;1.73;;;;;;;;;;5026779;28;20181;-75
2023/08/11 13:05:47;;;;;;;2.50;1.65;;;;;;;;;;5033393;28;20120;-76
2023/08/11 13:08:12;;;;;;;4.57;1.70;;;;;;;;;;5028418;28;20101;-77
2023/08/11 13:10:38;;;;;;;2.83;1.60;;;;;;;;;;5015779;28;20387;-76
2023/08/11 13:13:03;;;;;;;2.53;1.60;;;;;;;;;;5034141;28;20028;-75
2023/08/11 13:15:28;;;;;;;3.27;1.90;;;;;;;;;;5014024;28;20283;-74
2023/08/11 13:17:53;;;;;;;4.47;1.90;;;;;;;;;;5043041;28;20278;-76
2023/08/11 13:20:19;;;;;;;3.47;1.67;;;;;;;;;;5024150;28;20595;-75
2023/08/11 13:22:44;;;;;;;3.97;1.63;;;;;;;;;;5048061;28;20274;-75
2023/08/11 13:25:09;;;;;;;2.42;1.70;;;;;;;;;;5017793;28;20108;-74
2023/08/11 13:27:36;;;;;;;2.47;1.83;;;;;;;;;;5024757;28;20035;-75
2023/08/11 13:30:01;;;;;;;4.10;1.80;;;;;;;;;;5025080;28;20028;-75
2023/08/11 13:32:26;;;;;;;3.08;1.90;;;;;;;;;;5014871;28;20020;-77
2023/08/11 13:34:52;;;;;;;2.57;1.77;;;;;;;;;;5041618;28;20025;-77
2023/08/11 13:37:17;;;;;;;2.78;1.90;;;;;;;;;;5045244;28;20028;-76
2023/08/11 13:39:43;;;;;;;3.33;1.55;;;;;;;;;;5040575;28;20019;-77
2023/08/11 13:42:09;;;;;;;2.50;1.65;;;;;;;;;;5034878;28;20027;-77
2023/08/11 13:44:35;;;;;;;2.42;1.65;;;;;;;;;;5062343;28;20017;-75
2023/08/11 13:47:00;;;;;;;3.35;1.77;;;;;;;;;;5024827;28;20533;-75
2023/08/11 13:49:25;;;;;;;2.75;1.48;;;;;;;;;;5029194;28;20044;-75
2023/08/11 13:51:50;;;;;;;3.20;1.60;;;;;;;;;;5041082;28;20052;-77
2023/08/11 13:54:16;;;;;;;2.95;1.90;;;;;;;;;;5016007;28;20282;-76
2023/08/11 13:56:41;;;;;;;2.17;1.70;;;;;;;;;;5048132;28;20013;-76
2023/08/11 13:59:06;;;;;;;3.70;1.60;;;;;;;;;;5048708;28;20458;-77
2023/08/11 14:01:31;;;;;;;2.43;1.80;;;;;;;;;;5041455;28;20282;-75
2023/08/11 14:03:57;;;;;;;4.23;1.73;;;;;;;;;;5045241;28;20766;-75
2023/08/11 14:06:22;;;;;;;2.50;1.70;;;;;;;;;;5027041;28;20278;-75
2023/08/11 14:08:47;;;;;;;3.58;1.60;;;;;;;;;;5024107;28;20328;-75
2023/08/11 14:11:13;;;;;;;3.25;1.70;;;;;;;;;;5026909;28;20021;-75
2023/08/11 14:13:41;;;;;;;2.50;1.58;;;;;;;;;;5046792;28;20142;-75
2023/08/11 14:16:06;;;;;;;2.83;1.70;;;;;;;;;;5038278;28;20021;-76
2023/08/11 14:18:32;;;;;;;3.05;1.67;;;;;;;;;;5026833;28;20014;-75
2023/08/11 14:20:57;;;;;;;4.38;1.58;;;;;;;;;;5049733;28;20051;-75
2023/08/11 14:23:22;;;;;;;3.10;1.30;;;;;;;;;;5035380;28;20384;-76
2023/08/11 14:25:49;;;;;;;2.67;1.60;;;;;;;;;;5044583;28;20263;-75
2023/08/11 14:28:14;;;;;;;1.85;1.15;;;;;;;;;;5026105;28;20335;-75
2023/08/11 14:30:40;;;;;;;2.00;1.33;;;;;;;;;;5045520;28;20067;-76
2023/08/11 14:33:05;;;;;;;3.03;1.30;;;;;;;;;;5046625;28;20712;-75
2023/08/11 14:35:30;;;;;;;2.53;1.40;;;;;;;;;;5026672;28;22475;-76
2023/08/11 14:37:57;;;;;;;2.65;1.58;;;;;;;;;;5029275;28;20059;-77
2023/08/11 14:40:22;;;;;;;2.22;1.08;;;;;;;;;;5036365;28;20047;-76
2023/08/11 14:42:49;;;;;;;2.00;1.17;;;;;;;;;;5045369;28;20411;-76